Time;durP1;ratioP1;P1;durP2;ratioP2;P2;SDS_P1;SDS_P2;PMS_P1;PMS_P2;Temp;Humidity;BMP_temperature;BMP_pressure;BME280_temperature;BME280_humidity;BME280_pressure;Samples;Min_cycle;Max_cycle;Signal;HPM_P1;HPM_P2
2023/01/27 00:01:39;;;;;;;0.40;0.40;;;3.70;99.90;;;;;;5068840;28;20270;-82
2023/01/27 00:04:05;;;;;;;0.37;0.37;;;3.70;99.90;;;;;;5071993;28;20548;-82
2023/01/27 00:06:30;;;;;;;0.30;0.30;;;3.70;99.90;;;;;;5070336;28;20235;-82
2023/01/27 00:08:56;;;;;;;0.40;0.40;;;3.60;99.90;;;;;;5071695;28;20243;-82
2023/01/27 00:14:05;;;;;;;0.40;0.40;;;3.50;99.90;;;;;;5065325;28;20201;-82
2023/01/27 00:16:31;;;;;;;0.40;0.40;;;3.50;99.90;;;;;;5069794;28;20448;-82
2023/01/27 00:18:56;;;;;;;0.40;0.40;;;3.50;99.90;;;;;;5070185;28;20269;-82
2023/01/27 00:26:54;;;;;;;0.40;0.40;;;3.40;99.90;;;;;;5066742;28;20442;-82
2023/01/27 00:29:20;;;;;;;0.30;0.30;;;3.50;99.90;;;;;;5064790;28;20810;-82
2023/01/27 00:34:30;;;;;;;0.30;0.30;;;3.50;99.90;;;;;;5062484;28;20455;-82
2023/01/27 00:36:55;;;;;;;0.30;0.30;;;3.40;99.90;;;;;;5069186;28;20450;-82
2023/01/27 00:39:21;;;;;;;0.40;0.40;;;3.40;99.90;;;;;;5070434;28;20280;-82
2023/01/27 00:41:46;;;;;;;0.40;0.40;;;3.40;99.90;;;;;;5067391;28;20284;-82
2023/01/27 00:44:12;;;;;;;0.40;0.40;;;3.40;99.90;;;;;;5058875;28;20213;-82
2023/01/27 00:46:38;;;;;;;0.30;0.30;;;3.40;99.90;;;;;;5062073;28;21493;-82
2023/01/27 00:49:03;;;;;;;0.40;0.40;;;3.40;99.90;;;;;;5060117;28;20247;-82
2023/01/27 00:51:29;;;;;;;0.40;0.40;;;3.40;99.90;;;;;;5068985;28;20225;-82
2023/01/27 00:53:54;;;;;;;0.40;0.40;;;3.40;99.90;;;;;;5068249;28;20340;-82
2023/01/27 00:56:20;;;;;;;0.30;0.30;;;3.40;99.90;;;;;;5069690;28;20178;-82
2023/01/27 00:58:45;;;;;;;0.30;0.30;;;3.50;99.90;;;;;;5070805;28;20186;-82
2023/01/27 01:01:13;;;;;;;0.30;0.30;;;3.50;99.90;;;;;;5079268;28;20216;-81
2023/01/27 01:03:39;;;;;;;0.30;0.30;;;3.50;99.90;;;;;;5069975;28;20197;-82
2023/01/27 01:06:07;;;;;;;0.30;0.30;;;3.40;99.90;;;;;;5068433;28;20475;-82
2023/01/27 01:08:35;;;;;;;0.27;0.27;;;3.40;99.90;;;;;;5070333;28;20185;-82
2023/01/27 01:11:01;;;;;;;0.40;0.40;;;3.40;99.90;;;;;;5055311;28;20696;-82
2023/01/27 01:13:27;;;;;;;0.30;0.30;;;3.50;99.90;;;;;;5063859;28;20459;-82
2023/01/27 01:15:53;;;;;;;0.30;0.30;;;3.50;99.90;;;;;;5070058;28;20432;-82
2023/01/27 01:18:18;;;;;;;0.30;0.30;;;3.50;99.90;;;;;;5070789;28;20193;-82
2023/01/27 01:20:45;;;;;;;0.33;0.33;;;3.50;99.90;;;;;;5068489;28;20447;-82
2023/01/27 01:23:11;;;;;;;0.33;0.33;;;3.50;99.90;;;;;;5065196;28;20678;-82
2023/01/27 01:25:37;;;;;;;0.30;0.30;;;3.50;99.90;;;;;;5070374;28;20489;-82
2023/01/27 01:28:04;;;;;;;0.30;0.30;;;3.40;99.90;;;;;;5063848;28;20897;-81
2023/01/27 01:30:30;;;;;;;0.30;0.30;;;3.50;99.90;;;;;;5069025;28;20183;-82
2023/01/27 01:32:56;;;;;;;0.30;0.30;;;3.50;99.90;;;;;;5070214;28;20795;-82
2023/01/27 01:35:24;;;;;;;0.37;0.37;;;3.50;99.90;;;;;;5069903;28;21024;-82
2023/01/27 01:37:50;;;;;;;0.40;0.40;;;3.50;99.90;;;;;;5068670;28;20489;-82
2023/01/27 01:40:17;;;;;;;0.37;0.37;;;3.50;99.90;;;;;;5065656;28;20445;-82
2023/01/27 01:42:51;;;;;;;0.40;0.40;;;3.40;99.90;;;;;;5066009;28;20518;-80
2023/01/27 01:45:32;;;;;;;0.23;0.23;;;3.40;99.90;;;;;;5068270;28;20443;-80
2023/01/27 01:48:06;;;;;;;0.30;0.30;;;3.40;99.90;;;;;;5068560;28;20553;-80
2023/01/27 01:50:33;;;;;;;0.40;0.40;;;3.40;99.90;;;;;;5048910;28;20461;-80
2023/01/27 01:53:00;;;;;;;0.50;0.50;;;3.40;99.90;;;;;;5045563;28;20508;-80
2023/01/27 01:55:26;;;;;;;0.40;0.40;;;3.40;99.90;;;;;;5050109;28;20421;-80
2023/01/27 01:57:53;;;;;;;0.50;0.50;;;3.40;99.90;;;;;;5051101;28;20505;-80
2023/01/27 02:00:18;;;;;;;0.40;0.40;;;3.40;99.90;;;;;;5065387;28;20447;-80
2023/01/27 02:02:46;;;;;;;0.37;0.37;;;3.40;99.90;;;;;;5066274;28;20540;-80
2023/01/27 02:05:20;;;;;;;0.40;0.40;;;3.40;99.90;;;;;;5067671;28;20276;-80
2023/01/27 02:07:48;;;;;;;0.40;0.40;;;3.40;99.90;;;;;;5048774;28;20484;-80
2023/01/27 02:10:14;;;;;;;0.40;0.40;;;3.40;99.90;;;;;;5061367;28;20443;-80
2023/01/27 02:12:40;;;;;;;0.30;0.30;;;3.40;99.90;;;;;;5064808;28;20994;-80
2023/01/27 02:15:07;;;;;;;0.40;0.40;;;3.40;99.90;;;;;;5049399;28;20190;-80
2023/01/27 02:17:33;;;;;;;0.40;0.40;;;3.40;99.90;;;;;;5067323;28;20228;-80
2023/01/27 02:20:21;;;;;;;0.30;0.30;;;3.40;99.90;;;;;;5057089;28;20441;-80
2023/01/27 02:23:02;;;;;;;0.30;0.30;;;3.40;99.90;;;;;;5049422;28;21008;-80
2023/01/27 02:25:34;;;;;;;0.30;0.30;;;3.40;99.90;;;;;;5067142;28;20999;-80
2023/01/27 02:28:03;;;;;;;0.30;0.30;;;3.40;99.90;;;;;;5053394;28;20563;-80
2023/01/27 02:30:29;;;;;;;0.30;0.30;;;3.40;99.90;;;;;;5066359;28;20877;-80
2023/01/27 02:32:54;;;;;;;0.30;0.30;;;3.40;99.90;;;;;;5069536;28;20982;-80
2023/01/27 02:35:35;;;;;;;0.20;0.20;;;3.40;99.90;;;;;;5067904;28;20281;-80
2023/01/27 02:38:04;;;;;;;0.30;0.30;;;3.40;99.90;;;;;;5056349;28;20206;-80
2023/01/27 02:40:32;;;;;;;0.30;0.30;;;3.40;99.90;;;;;;5068452;28;20523;-80
2023/01/27 02:42:58;;;;;;;0.27;0.27;;;3.40;99.90;;;;;;5058988;28;20599;-80
2023/01/27 02:45:24;;;;;;;0.40;0.40;;;3.40;99.90;;;;;;5064654;28;20428;-80
2023/01/27 02:47:49;;;;;;;0.27;0.27;;;3.30;99.90;;;;;;5068447;28;20423;-80
2023/01/27 02:50:16;;;;;;;0.40;0.40;;;3.30;99.90;;;;;;5066436;28;20243;-80
2023/01/27 02:52:42;;;;;;;0.30;0.30;;;3.30;99.90;;;;;;5067070;28;20190;-80
2023/01/27 02:55:08;;;;;;;0.40;0.40;;;3.30;99.90;;;;;;5067718;28;20487;-80
2023/01/27 02:57:33;;;;;;;0.30;0.30;;;3.30;99.90;;;;;;5067014;28;20198;-80
2023/01/27 02:59:59;;;;;;;0.40;0.40;;;3.30;99.90;;;;;;5069914;28;20452;-80
2023/01/27 03:02:29;;;;;;;0.40;0.40;;;3.20;99.90;;;;;;5071807;28;20225;-80
2023/01/27 03:04:57;;;;;;;0.30;0.30;;;3.20;99.90;;;;;;5071984;28;20182;-80
2023/01/27 03:07:23;;;;;;;0.40;0.40;;;3.20;99.90;;;;;;5071225;28;20440;-80
2023/01/27 03:09:48;;;;;;;0.30;0.30;;;3.10;99.90;;;;;;5073321;28;20912;-81
2023/01/27 03:12:20;;;;;;;0.40;0.40;;;3.10;99.90;;;;;;5069439;28;20189;-83
2023/01/27 03:20:21;;;;;;;0.40;0.40;;;3.10;99.90;;;;;;5068442;28;21048;-82
2023/01/27 03:22:46;;;;;;;0.40;0.40;;;3.10;99.90;;;;;;5069304;28;20499;-80
2023/01/27 03:25:12;;;;;;;0.30;0.30;;;3.10;99.90;;;;;;5073129;28;20416;-80
2023/01/27 03:27:38;;;;;;;0.33;0.33;;;3.10;99.90;;;;;;5070604;28;20668;-80
2023/01/27 03:30:04;;;;;;;0.40;0.40;;;3.10;99.90;;;;;;5071906;28;20182;-80
2023/01/27 03:32:31;;;;;;;0.30;0.30;;;3.10;99.90;;;;;;5069060;28;20186;-80
2023/01/27 03:34:56;;;;;;;0.30;0.30;;;3.10;99.90;;;;;;5070359;28;20499;-80
2023/01/27 03:48:32;;;;;;;0.30;0.30;;;3.10;99.90;;;;;;5053066;28;20462;-82
2023/01/27 03:50:58;;;;;;;0.30;0.30;;;3.10;99.90;;;;;;5069966;28;20444;-82
2023/01/27 03:53:23;;;;;;;0.33;0.33;;;3.10;99.90;;;;;;5069683;28;20562;-82
2023/01/27 03:55:49;;;;;;;0.40;0.40;;;3.10;99.90;;;;;;5068908;28;20888;-79
2023/01/27 03:58:24;;;;;;;0.20;0.20;;;3.10;99.90;;;;;;5058094;28;20191;-80
2023/01/27 04:00:52;;;;;;;0.30;0.30;;;3.10;99.90;;;;;;5059438;28;20189;-80
2023/01/27 04:08:49;;;;;;;0.40;0.40;;;3.00;99.90;;;;;;5067283;28;20446;-80
2023/01/27 04:14:00;;;;;;;0.40;0.40;;;3.00;99.90;;;;;;5056494;28;20189;-80
2023/01/27 04:16:29;;;;;;;0.30;0.30;;;3.10;99.90;;;;;;5066049;28;20443;-80
2023/01/27 04:18:57;;;;;;;0.30;0.30;;;3.10;99.90;;;;;;5069753;28;20440;-80
2023/01/27 04:21:24;;;;;;;0.40;0.40;;;3.10;99.90;;;;;;5071392;28;20505;-80
2023/01/27 04:23:51;;;;;;;0.30;0.30;;;3.10;99.90;;;;;;5058604;28;20456;-80
2023/01/27 04:26:18;;;;;;;0.40;0.40;;;3.10;99.90;;;;;;5072350;28;20943;-82
2023/01/27 04:28:43;;;;;;;0.30;0.30;;;3.10;99.90;;;;;;5055587;28;20467;-82
2023/01/27 04:31:09;;;;;;;0.40;0.40;;;3.10;99.90;;;;;;5059694;28;20436;-82
2023/01/27 04:33:34;;;;;;;0.30;0.30;;;3.10;99.90;;;;;;5070377;28;20186;-82
2023/01/27 04:36:00;;;;;;;0.30;0.30;;;3.10;99.90;;;;;;5070341;28;20646;-82
2023/01/27 04:38:25;;;;;;;0.30;0.30;;;3.10;99.90;;;;;;5070351;28;20206;-82
2023/01/27 04:40:51;;;;;;;0.40;0.40;;;3.20;99.90;;;;;;5068512;28;20704;-82
2023/01/27 04:43:17;;;;;;;0.23;0.23;;;3.20;99.90;;;;;;5061888;28;20313;-83
2023/01/27 04:45:42;;;;;;;0.30;0.30;;;3.20;99.90;;;;;;5068709;28;20185;-80
2023/01/27 04:48:08;;;;;;;0.30;0.30;;;3.20;99.90;;;;;;5071097;28;20177;-80
2023/01/27 04:50:33;;;;;;;0.33;0.33;;;3.20;99.90;;;;;;5070352;28;20646;-80
2023/01/27 04:52:59;;;;;;;0.30;0.30;;;3.10;99.90;;;;;;5071109;28;20256;-81
2023/01/27 04:55:25;;;;;;;0.37;0.37;;;3.10;99.90;;;;;;5067886;28;20190;-80
2023/01/27 04:57:50;;;;;;;0.40;0.40;;;3.20;99.90;;;;;;5059482;28;20198;-80
2023/01/27 05:00:17;;;;;;;0.30;0.30;;;3.20;99.90;;;;;;5069508;28;20456;-80
2023/01/27 05:02:42;;;;;;;0.30;0.30;;;3.20;99.90;;;;;;5069465;28;20262;-80
2023/01/27 05:05:08;;;;;;;0.37;0.37;;;3.20;99.90;;;;;;5071001;28;20778;-80
2023/01/27 05:07:34;;;;;;;0.37;0.37;;;3.20;99.90;;;;;;5069264;28;20182;-80
2023/01/27 05:10:00;;;;;;;0.30;0.30;;;3.20;99.90;;;;;;5069324;28;20508;-80
2023/01/27 05:12:25;;;;;;;0.37;0.37;;;3.20;99.90;;;;;;5056841;28;20278;-80
2023/01/27 05:14:51;;;;;;;0.30;0.30;;;3.20;99.90;;;;;;5053003;28;20561;-80
2023/01/27 05:17:16;;;;;;;0.30;0.30;;;3.20;99.90;;;;;;5067440;28;20186;-81
2023/01/27 05:19:41;;;;;;;0.30;0.30;;;3.20;99.90;;;;;;5067871;28;20197;-80
2023/01/27 05:22:09;;;;;;;0.40;0.40;;;3.20;99.90;;;;;;5065698;28;20236;-80
2023/01/27 05:24:35;;;;;;;0.30;0.30;;;3.20;99.90;;;;;;5068126;28;20187;-81
2023/01/27 05:27:01;;;;;;;0.30;0.30;;;3.20;99.90;;;;;;5068332;28;20459;-80
2023/01/27 05:29:26;;;;;;;0.33;0.33;;;3.20;99.90;;;;;;5074971;28;20448;-80
2023/01/27 05:31:52;;;;;;;0.37;0.37;;;3.20;99.90;;;;;;5068446;28;20550;-80
2023/01/27 05:34:17;;;;;;;0.30;0.30;;;3.20;99.90;;;;;;5069975;28;20194;-80
2023/01/27 05:36:43;;;;;;;0.40;0.40;;;3.20;99.90;;;;;;5068912;28;20518;-80
2023/01/27 05:39:12;;;;;;;0.40;0.40;;;3.20;99.90;;;;;;5061254;28;20244;-80
2023/01/27 05:41:37;;;;;;;0.37;0.37;;;3.20;99.90;;;;;;5070262;28;20213;-80
2023/01/27 05:44:04;;;;;;;0.30;0.30;;;3.10;99.90;;;;;;5070955;28;20544;-80
2023/01/27 05:46:30;;;;;;;0.30;0.30;;;3.10;99.90;;;;;;5062060;28;20548;-80
2023/01/27 05:48:59;;;;;;;0.30;0.30;;;3.10;99.90;;;;;;5067936;28;20474;-80
2023/01/27 05:51:27;;;;;;;0.40;0.40;;;3.10;99.90;;;;;;5064807;28;20578;-80
2023/01/27 05:53:54;;;;;;;0.30;0.30;;;3.10;99.90;;;;;;5059077;28;20564;-80
2023/01/27 05:56:20;;;;;;;0.30;0.30;;;3.10;99.90;;;;;;5060041;28;20444;-83
2023/01/27 05:58:46;;;;;;;0.40;0.40;;;3.10;99.90;;;;;;5049636;28;20445;-83
2023/01/27 06:01:15;;;;;;;0.40;0.40;;;3.10;99.90;;;;;;5068238;28;20428;-83
2023/01/27 06:03:41;;;;;;;0.33;0.33;;;3.10;99.90;;;;;;5059261;28;20649;-82
2023/01/27 06:06:08;;;;;;;0.40;0.40;;;3.10;99.90;;;;;;5064971;28;20440;-82
2023/01/27 06:08:34;;;;;;;0.40;0.40;;;3.10;99.90;;;;;;5064718;28;20487;-83
2023/01/27 06:11:00;;;;;;;0.40;0.40;;;3.10;99.90;;;;;;5061730;28;20478;-82
2023/01/27 06:13:26;;;;;;;0.40;0.40;;;3.10;99.90;;;;;;5065419;28;20506;-82
2023/01/27 06:15:53;;;;;;;0.40;0.40;;;3.10;99.90;;;;;;5064651;28;20305;-82
2023/01/27 06:18:19;;;;;;;0.20;0.20;;;3.10;99.90;;;;;;5060615;28;20595;-82
2023/01/27 06:20:45;;;;;;;0.40;0.40;;;3.00;99.90;;;;;;5050504;28;20541;-83
2023/01/27 06:23:12;;;;;;;0.40;0.40;;;3.00;99.90;;;;;;5064689;28;20633;-82
2023/01/27 06:25:41;;;;;;;0.30;0.30;;;2.90;99.90;;;;;;5062508;28;21002;-82
2023/01/27 06:28:07;;;;;;;0.40;0.40;;;2.90;99.90;;;;;;5062781;28;20439;-82
2023/01/27 06:30:34;;;;;;;0.40;0.40;;;2.90;99.90;;;;;;5062469;28;20491;-82
2023/01/27 06:33:00;;;;;;;0.40;0.40;;;2.90;99.90;;;;;;5063668;28;20451;-84
2023/01/27 06:35:26;;;;;;;0.40;0.40;;;2.90;99.90;;;;;;5066140;28;20958;-83
2023/01/27 06:37:52;;;;;;;0.40;0.40;;;2.90;99.90;;;;;;5072386;28;20538;-84
2023/01/27 06:40:18;;;;;;;0.40;0.40;;;2.90;99.90;;;;;;5068766;28;20289;-83
2023/01/27 06:42:43;;;;;;;0.40;0.40;;;2.80;99.90;;;;;;5069949;28;20759;-84
2023/01/27 06:45:12;;;;;;;0.40;0.40;;;2.80;99.90;;;;;;5068990;28;20196;-83
2023/01/27 06:47:39;;;;;;;0.40;0.40;;;2.80;99.90;;;;;;5070024;28;20185;-83
2023/01/27 06:50:06;;;;;;;0.40;0.40;;;2.80;99.90;;;;;;5069774;28;20485;-83
2023/01/27 06:52:32;;;;;;;0.40;0.40;;;2.80;99.90;;;;;;5072566;28;20535;-83
2023/01/27 06:54:57;;;;;;;0.50;0.50;;;2.90;99.90;;;;;;5072648;28;20551;-83
2023/01/27 06:57:22;;;;;;;0.40;0.40;;;2.80;99.90;;;;;;5068209;28;20684;-84
2023/01/27 06:59:48;;;;;;;0.40;0.40;;;2.80;99.90;;;;;;5070349;28;20186;-84
2023/01/27 07:02:13;;;;;;;0.30;0.30;;;2.80;99.90;;;;;;5066632;28;20274;-85
2023/01/27 07:04:39;;;;;;;0.47;0.47;;;2.80;99.90;;;;;;5069572;28;20198;-83
2023/01/27 07:07:04;;;;;;;0.30;0.30;;;2.80;99.90;;;;;;5063433;28;20204;-83
2023/01/27 07:09:30;;;;;;;0.40;0.40;;;2.80;99.90;;;;;;5061271;28;20186;-83
2023/01/27 07:11:56;;;;;;;0.40;0.40;;;2.80;99.90;;;;;;5068861;28;20610;-83
2023/01/27 07:14:21;;;;;;;0.40;0.40;;;2.80;99.90;;;;;;5068854;28;20189;-83
2023/01/27 07:16:47;;;;;;;0.40;0.40;;;2.80;99.90;;;;;;5069565;28;20186;-82
2023/01/27 07:19:13;;;;;;;0.40;0.40;;;2.80;99.90;;;;;;5063328;28;20198;-83
2023/01/27 07:21:38;;;;;;;0.33;0.33;;;2.90;99.90;;;;;;5061569;28;20218;-83
2023/01/27 07:24:04;;;;;;;0.40;0.40;;;2.90;99.90;;;;;;5058255;28;20456;-83
2023/01/27 07:26:30;;;;;;;0.33;0.33;;;2.90;99.90;;;;;;5070146;28;20190;-83
2023/01/27 07:28:56;;;;;;;0.40;0.40;;;2.90;99.90;;;;;;5069846;28;20471;-83
2023/01/27 07:31:22;;;;;;;0.30;0.30;;;2.90;99.90;;;;;;5068357;28;20276;-82
2023/01/27 07:33:47;;;;;;;0.30;0.30;;;2.90;99.90;;;;;;5067161;28;20202;-83
2023/01/27 07:36:13;;;;;;;0.50;0.50;;;2.90;99.90;;;;;;5055275;28;20486;-83
2023/01/27 07:38:38;;;;;;;0.40;0.40;;;2.90;99.90;;;;;;5061902;28;20202;-84
2023/01/27 07:41:05;;;;;;;0.40;0.40;;;2.90;99.90;;;;;;5066726;28;20201;-83
2023/01/27 07:43:31;;;;;;;0.40;0.40;;;2.90;99.90;;;;;;5066952;28;20316;-83
2023/01/27 07:45:56;;;;;;;0.40;0.40;;;2.90;99.90;;;;;;5056677;28;20449;-83
2023/01/27 07:48:22;;;;;;;0.40;0.40;;;3.00;99.90;;;;;;5063780;28;20593;-84
2023/01/27 07:50:48;;;;;;;0.40;0.40;;;2.90;99.90;;;;;;5065165;28;20194;-84
2023/01/27 07:53:14;;;;;;;0.33;0.33;;;3.00;99.90;;;;;;5062953;28;20608;-83
2023/01/27 07:55:40;;;;;;;0.30;0.30;;;3.00;99.90;;;;;;5069290;28;20548;-83
2023/01/27 07:58:05;;;;;;;0.43;0.43;;;3.00;99.90;;;;;;5062844;28;21318;-83
2023/01/27 08:00:32;;;;;;;0.30;0.30;;;3.00;99.90;;;;;;5064286;28;20198;-84
2023/01/27 08:03:00;;;;;;;0.33;0.33;;;3.00;99.90;;;;;;5068956;28;20889;-84
2023/01/27 08:05:26;;;;;;;0.37;0.37;;;3.00;99.90;;;;;;5064333;28;20615;-84
2023/01/27 08:07:53;;;;;;;0.40;0.40;;;3.00;99.90;;;;;;5059424;28;20455;-82
2023/01/27 08:13:41;;;;;;;0.40;0.40;;;3.00;99.90;;;;;;5012496;28;20493;-80
2023/01/27 08:16:13;;;;;;;0.40;0.40;;;3.00;99.90;;;;;;5028302;28;20454;-81
2023/01/27 08:18:39;;;;;;;0.30;0.30;;;3.00;99.90;;;;;;5026066;28;20237;-80
2023/01/27 08:21:08;;;;;;;0.30;0.30;;;3.00;99.90;;;;;;5026803;28;20446;-81
2023/01/27 08:23:34;;;;;;;0.40;0.40;;;3.00;99.90;;;;;;5028910;28;20195;-81
2023/01/27 08:26:01;;;;;;;0.40;0.40;;;3.00;99.90;;;;;;5024105;28;20437;-82
2023/01/27 08:28:28;;;;;;;0.40;0.40;;;3.00;99.90;;;;;;5026253;28;20190;-81
2023/01/27 08:31:01;;;;;;;0.50;0.50;;;3.00;99.90;;;;;;5021024;28;20443;-82
2023/01/27 08:33:27;;;;;;;0.30;0.30;;;3.00;99.90;;;;;;5016561;28;20487;-81
2023/01/27 08:35:52;;;;;;;0.40;0.40;;;3.00;99.90;;;;;;5020349;28;20430;-81
2023/01/27 08:38:18;;;;;;;0.40;0.40;;;3.00;99.90;;;;;;5021894;28;20214;-81
2023/01/27 08:40:46;;;;;;;0.50;0.50;;;3.00;99.90;;;;;;5023794;28;20187;-81
2023/01/27 08:43:14;;;;;;;0.47;0.47;;;3.00;99.90;;;;;;5022120;28;20893;-81
2023/01/27 08:45:40;;;;;;;0.40;0.40;;;3.00;99.90;;;;;;5035556;28;20445;-81
2023/01/27 08:48:05;;;;;;;0.40;0.40;;;3.00;99.90;;;;;;5031478;28;20418;-81
2023/01/27 08:50:31;;;;;;;0.40;0.40;;;3.00;99.90;;;;;;5029626;28;20207;-80
2023/01/27 08:52:58;;;;;;;0.40;0.40;;;3.10;99.90;;;;;;5026168;28;20270;-82
2023/01/27 08:55:26;;;;;;;0.40;0.40;;;3.10;99.90;;;;;;5026612;28;20926;-81
2023/01/27 08:57:52;;;;;;;0.30;0.30;;;3.10;99.90;;;;;;5028730;28;20487;-80
2023/01/27 09:00:18;;;;;;;0.30;0.30;;;3.10;99.90;;;;;;5023318;28;20515;-80
2023/01/27 09:02:44;;;;;;;0.30;0.30;;;3.10;99.90;;;;;;5028297;28;20230;-80
2023/01/27 09:05:09;;;;;;;0.30;0.30;;;3.10;99.90;;;;;;5025845;28;20438;-81
2023/01/27 09:07:35;;;;;;;0.50;0.50;;;3.20;99.90;;;;;;5027365;28;20458;-81
2023/01/27 09:10:01;;;;;;;0.40;0.40;;;3.20;99.90;;;;;;5026160;28;20222;-80
2023/01/27 09:12:26;;;;;;;0.40;0.40;;;3.10;99.90;;;;;;5023787;28;20235;-81
2023/01/27 09:14:52;;;;;;;0.40;0.40;;;3.10;99.90;;;;;;5022651;28;20194;-81
2023/01/27 09:17:18;;;;;;;0.40;0.40;;;3.10;99.90;;;;;;5026539;28;20550;-81
2023/01/27 09:19:44;;;;;;;0.30;0.30;;;3.10;99.90;;;;;;5029073;28;20460;-82
2023/01/27 09:22:10;;;;;;;0.40;0.40;;;3.20;99.90;;;;;;5029387;28;20230;-82
2023/01/27 09:24:35;;;;;;;0.40;0.40;;;3.20;99.90;;;;;;5026233;28;20442;-82
2023/01/27 09:27:01;;;;;;;0.40;0.40;;;3.30;99.90;;;;;;5029190;28;20191;-82
2023/01/27 09:29:28;;;;;;;0.30;0.30;;;3.30;99.90;;;;;;5029599;28;20179;-83
2023/01/27 09:31:53;;;;;;;0.50;0.50;;;3.30;99.90;;;;;;5030134;28;20282;-80
2023/01/27 09:34:19;;;;;;;0.40;0.40;;;3.40;99.90;;;;;;5028629;28;20557;-81
2023/01/27 09:36:52;;;;;;;0.30;0.30;;;3.40;99.90;;;;;;5029844;28;20192;-81
2023/01/27 09:39:19;;;;;;;0.30;0.30;;;3.40;99.90;;;;;;5026076;28;20187;-81
2023/01/27 09:42:40;;;;;;;0.37;0.37;;;3.40;99.90;;;;;;5025876;28;20617;-80
2023/01/27 09:45:23;;;;;;;0.40;0.40;;;3.30;99.90;;;;;;4986248;28;20475;-81
2023/01/27 09:48:07;;;;;;;0.30;0.30;;;3.30;99.90;;;;;;4959877;28;20428;-80
2023/01/27 09:50:43;;;;;;;0.40;0.40;;;3.30;99.90;;;;;;5021415;28;20858;-80
2023/01/27 09:53:43;;;;;;;0.40;0.40;;;3.30;99.90;;;;;;5027775;28;20444;-80
2023/01/27 09:56:35;;;;;;;0.40;0.40;;;3.30;99.90;;;;;;5022605;28;20471;-80
2023/01/27 09:59:17;;;;;;;0.30;0.30;;;3.30;99.90;;;;;;5028825;28;20831;-81
2023/01/27 10:02:06;;;;;;;0.40;0.40;;;3.30;99.90;;;;;;5026868;28;20478;-81
2023/01/27 10:05:09;;;;;;;0.30;0.30;;;3.30;99.90;;;;;;5026364;28;20449;-81
2023/01/27 10:08:08;;;;;;;0.37;0.37;;;3.40;99.90;;;;;;5006619;28;20458;-80
2023/01/27 10:10:39;;;;;;;0.40;0.40;;;3.30;99.90;;;;;;5021927;28;20445;-80
2023/01/27 10:13:20;;;;;;;0.40;0.40;;;3.30;99.90;;;;;;5022091;28;20490;-81
2023/01/27 10:16:15;;;;;;;0.40;0.40;;;3.40;99.90;;;;;;5023912;28;20445;-80
2023/01/27 10:19:07;;;;;;;0.40;0.40;;;3.40;99.90;;;;;;5000185;28;20456;-81
2023/01/27 10:21:50;;;;;;;0.30;0.30;;;3.40;99.90;;;;;;5017200;28;20467;-80
2023/01/27 10:24:43;;;;;;;0.40;0.40;;;3.30;99.90;;;;;;5022927;28;20453;-80
2023/01/27 10:27:19;;;;;;;0.37;0.37;;;3.20;99.90;;;;;;5026691;28;20457;-80
2023/01/27 10:29:50;;;;;;;0.40;0.40;;;3.10;99.90;;;;;;5027796;28;20800;-82
2023/01/27 10:32:45;;;;;;;0.30;0.30;;;3.10;99.90;;;;;;5019252;28;20503;-83
2023/01/27 10:35:21;;;;;;;0.40;0.40;;;3.20;99.90;;;;;;5009578;28;21027;-83
2023/01/27 10:37:58;;;;;;;0.40;0.40;;;3.10;99.90;;;;;;5025969;28;20524;-83
2023/01/27 10:40:49;;;;;;;0.30;0.30;;;3.10;99.90;;;;;;5018261;28;20940;-83
2023/01/27 10:43:41;;;;;;;0.40;0.40;;;3.20;99.90;;;;;;5026064;28;20478;-83
2023/01/27 10:46:33;;;;;;;0.23;0.23;;;3.20;99.90;;;;;;5025652;28;20438;-81
2023/01/27 10:49:27;;;;;;;0.47;0.47;;;3.20;99.90;;;;;;5022674;28;20434;-83
2023/01/27 10:52:05;;;;;;;0.30;0.30;;;3.20;99.90;;;;;;5024417;28;20904;-82
2023/01/27 10:54:36;;;;;;;0.30;0.30;;;3.20;99.90;;;;;;5027666;28;20441;-83
2023/01/27 10:57:16;;;;;;;0.40;0.40;;;3.20;99.90;;;;;;5025235;28;20454;-82
2023/01/27 10:59:46;;;;;;;0.30;0.30;;;3.20;99.90;;;;;;5025886;28;20711;-83
2023/01/27 11:02:30;;;;;;;0.40;0.40;;;3.30;99.90;;;;;;5022886;28;20984;-82
2023/01/27 11:04:59;;;;;;;0.40;0.40;;;3.30;99.90;;;;;;5026259;28;20816;-82
2023/01/27 11:07:25;;;;;;;0.30;0.30;;;3.30;99.90;;;;;;5021981;28;20851;-83
2023/01/27 11:09:59;;;;;;;0.40;0.40;;;3.40;99.90;;;;;;5025023;28;20474;-83
2023/01/27 11:12:35;;;;;;;0.40;0.40;;;3.40;99.90;;;;;;5022988;28;20477;-83
2023/01/27 11:15:13;;;;;;;0.37;0.37;;;3.40;99.90;;;;;;5020987;28;20507;-83
2023/01/27 11:18:08;;;;;;;0.30;0.30;;;3.30;99.90;;;;;;5018851;28;20453;-83
2023/01/27 11:20:41;;;;;;;0.40;0.40;;;3.40;99.90;;;;;;5026871;28;21697;-82
2023/01/27 11:23:10;;;;;;;0.40;0.40;;;3.40;99.90;;;;;;5028863;28;20976;-83
2023/01/27 11:25:55;;;;;;;0.30;0.30;;;3.40;99.90;;;;;;5027413;28;20442;-83
2023/01/27 11:28:43;;;;;;;0.30;0.30;;;3.40;99.90;;;;;;5025713;28;20446;-82
2023/01/27 11:31:34;;;;;;;0.37;0.37;;;3.40;99.90;;;;;;5039280;28;20432;-83
2023/01/27 11:33:59;;;;;;;0.40;0.40;;;3.40;99.90;;;;;;5017980;28;21010;-80
2023/01/27 11:36:25;;;;;;;0.30;0.30;;;3.40;99.90;;;;;;5031508;28;20426;-81
2023/01/27 11:38:53;;;;;;;0.40;0.40;;;3.50;99.90;;;;;;5028399;28;20718;-82
2023/01/27 11:41:18;;;;;;;0.30;0.30;;;3.50;99.90;;;;;;5026854;28;20445;-84
2023/01/27 11:43:44;;;;;;;0.40;0.40;;;3.60;99.90;;;;;;5024038;28;20599;-83
2023/01/27 11:46:16;;;;;;;0.40;0.40;;;3.70;99.90;;;;;;5026851;28;20366;-83
2023/01/27 11:48:47;;;;;;;0.40;0.40;;;3.80;99.90;;;;;;5028839;28;20638;-83
2023/01/27 11:51:19;;;;;;;0.37;0.37;;;3.90;99.90;;;;;;5027692;28;20658;-83
2023/01/27 11:54:08;;;;;;;0.30;0.30;;;3.90;99.90;;;;;;5024978;28;20454;-80
2023/01/27 11:56:36;;;;;;;0.30;0.30;;;4.00;99.90;;;;;;5029382;28;20469;-80
2023/01/27 11:59:07;;;;;;;0.40;0.40;;;4.40;99.90;;;;;;5024087;28;20845;-80
2023/01/27 12:01:58;;;;;;;0.40;0.40;;;4.40;99.90;;;;;;5019612;28;20447;-81
2023/01/27 12:05:16;;;;;;;0.30;0.30;;;4.40;99.90;;;;;;5021129;28;20511;-81
2023/01/27 12:07:55;;;;;;;0.40;0.40;;;4.10;99.90;;;;;;5002878;28;20934;-81
2023/01/27 12:10:40;;;;;;;0.30;0.30;;;4.20;99.90;;;;;;5015875;28;20465;-81
2023/01/27 12:13:08;;;;;;;0.30;0.30;;;4.00;99.90;;;;;;5030048;28;20887;-81
2023/01/27 12:15:35;;;;;;;0.30;0.30;;;4.70;99.90;;;;;;5023046;28;20438;-81
2023/01/27 12:18:14;;;;;;;0.40;0.40;;;4.90;99.90;;;;;;5031305;28;20446;-81
2023/01/27 12:20:43;;;;;;;0.27;0.27;;;4.90;99.90;;;;;;5029081;28;20442;-81
2023/01/27 12:23:23;;;;;;;0.23;0.23;;;5.10;99.90;;;;;;5028214;28;20493;-81
2023/01/27 12:26:05;;;;;;;0.30;0.30;;;5.50;99.90;;;;;;5029671;28;20533;-80
2023/01/27 12:28:37;;;;;;;0.30;0.30;;;5.20;99.90;;;;;;5031676;28;20496;-80
2023/01/27 12:31:26;;;;;;;0.20;0.20;;;5.10;99.90;;;;;;5029416;28;20792;-81
2023/01/27 12:34:00;;;;;;;0.30;0.30;;;5.40;99.90;;;;;;5030657;28;20591;-80
2023/01/27 12:36:27;;;;;;;0.30;0.30;;;5.50;99.90;;;;;;5032017;28;21026;-80
2023/01/27 12:39:00;;;;;;;0.30;0.30;;;5.80;99.90;;;;;;5033666;28;20469;-80
2023/01/27 12:41:27;;;;;;;0.30;0.30;;;6.00;99.90;;;;;;5031715;28;20473;-80
2023/01/27 12:43:59;;;;;;;0.30;0.30;;;6.50;99.90;;;;;;5027390;28;20454;-80
2023/01/27 12:46:27;;;;;;;0.20;0.20;;;7.10;99.90;;;;;;5023638;28;20776;-80
2023/01/27 12:49:01;;;;;;;0.20;0.20;;;7.60;99.90;;;;;;5026556;28;21375;-82
2023/01/27 12:51:44;;;;;;;0.20;0.20;;;7.90;99.90;;;;;;5021697;28;20421;-80
2023/01/27 12:54:14;;;;;;;0.20;0.20;;;8.20;99.90;;;;;;5030367;28;20430;-78
2023/01/27 12:56:41;;;;;;;0.20;0.20;;;8.40;99.90;;;;;;5019572;28;20504;-79
2023/01/27 12:59:13;;;;;;;0.20;0.20;;;8.60;99.90;;;;;;5029308;28;20541;-78
2023/01/27 13:01:40;;;;;;;0.20;0.20;;;8.30;99.90;;;;;;5028585;28;20446;-81
2023/01/27 13:04:18;;;;;;;0.20;0.20;;;8.30;99.90;;;;;;5029761;28;20444;-78
2023/01/27 13:06:55;;;;;;;0.20;0.20;;;8.40;99.90;;;;;;5022697;28;20473;-77
2023/01/27 13:09:33;;;;;;;0.20;0.20;;;8.70;99.90;;;;;;5013825;28;20439;-78
2023/01/27 13:12:04;;;;;;;0.20;0.20;;;8.60;99.90;;;;;;5026514;28;20517;-79
2023/01/27 13:14:38;;;;;;;0.20;0.20;;;9.00;99.90;;;;;;5028854;28;20450;-79
2023/01/27 13:17:03;;;;;;;0.10;0.10;;;9.00;99.90;;;;;;5020092;28;20442;-79
2023/01/27 13:19:43;;;;;;;0.17;0.17;;;9.30;99.90;;;;;;5030809;28;20511;-80
2023/01/27 13:22:16;;;;;;;0.20;0.20;;;9.40;99.90;;;;;;5030448;28;20674;-79
2023/01/27 13:24:45;;;;;;;0.10;0.10;;;9.10;99.90;;;;;;5021966;28;20469;-80
2023/01/27 13:27:15;;;;;;;0.20;0.20;;;9.20;99.90;;;;;;5027935;28;20446;-80
2023/01/27 13:29:53;;;;;;;0.20;0.20;;;9.20;99.90;;;;;;5027805;28;20446;-79
2023/01/27 13:32:24;;;;;;;0.10;0.10;;;9.40;99.90;;;;;;5029202;28;20961;-80
2023/01/27 13:35:12;;;;;;;0.10;0.10;;;10.00;99.90;;;;;;5016135;28;20463;-79
2023/01/27 13:37:50;;;;;;;0.10;0.10;;;10.70;99.90;;;;;;5018480;28;20458;-81
2023/01/27 13:40:33;;;;;;;0.10;0.10;;;10.80;99.90;;;;;;5026574;28;20637;-80
2023/01/27 13:43:07;;;;;;;0.10;0.10;;;11.60;99.90;;;;;;5027383;28;20490;-80
2023/01/27 13:45:44;;;;;;;0.10;0.10;;;9.20;99.90;;;;;;5017803;28;20441;-80
2023/01/27 13:48:17;;;;;;;0.10;0.10;;;10.20;99.90;;;;;;5020292;28;20449;-80
2023/01/27 13:50:49;;;;;;;0.10;0.10;;;10.20;99.90;;;;;;5022866;28;20978;-80
2023/01/27 13:53:17;;;;;;;0.10;0.10;;;8.50;99.90;;;;;;5028175;28;20526;-80